createdAt,value
2018-12-26T00:00:13.252Z,14.07
2018-12-26T00:02:42.217Z,16.53
2018-12-26T00:05:10.666Z,13.20
2018-12-26T00:07:39.114Z,14.90
2018-12-26T00:10:08.036Z,15.47
2018-12-26T00:12:36.486Z,19.33
2018-12-26T00:15:06.173Z,12.73
2018-12-26T00:17:37.276Z,20.47
2018-12-26T00:20:05.995Z,19.67
2018-12-26T00:22:34.605Z,13.93
2018-12-26T00:25:03.166Z,17.23
2018-12-26T00:27:31.658Z,12.10
2018-12-26T00:30:00.115Z,18.97
2018-12-26T00:32:28.666Z,11.10
2018-12-26T00:34:57.190Z,14.17
2018-12-26T00:37:25.640Z,14.73
2018-12-26T00:39:54.258Z,13.13
2018-12-26T00:42:23.029Z,16.77
2018-12-26T00:44:51.620Z,15.67
2018-12-26T00:47:20.218Z,12.53
2018-12-26T00:49:48.669Z,19.33
2018-12-26T00:52:19.585Z,20.50
2018-12-26T00:54:48.140Z,18.00
2018-12-26T00:57:16.593Z,11.90
2018-12-26T00:59:45.121Z,15.37
2018-12-26T01:02:13.748Z,18.00
2018-12-26T01:04:42.196Z,22.07
2018-12-26T01:07:10.638Z,12.87
2018-12-26T01:09:39.190Z,15.10
2018-12-26T01:12:07.638Z,18.80
2018-12-26T01:14:36.097Z,14.97
2018-12-26T01:17:04.826Z,16.37
2018-12-26T01:19:33.281Z,14.70
2018-12-26T01:22:01.798Z,13.77
2018-12-26T01:24:30.266Z,16.60
2018-12-26T01:26:58.713Z,10.90
2018-12-26T01:29:27.263Z,18.10
2018-12-26T01:31:55.729Z,16.27
2018-12-26T01:34:24.366Z,12.23
2018-12-26T01:36:52.810Z,15.50
2018-12-26T01:39:21.361Z,16.73
2018-12-26T01:41:49.845Z,19.20
2018-12-26T01:44:18.293Z,11.97
2018-12-26T01:46:48.415Z,14.17
2018-12-26T01:49:16.863Z,16.37
2018-12-26T01:51:45.382Z,19.03
2018-12-26T01:54:15.500Z,15.77
2018-12-26T01:56:43.949Z,12.80
2018-12-26T01:59:12.397Z,15.83
2018-12-26T02:01:40.950Z,17.87
2018-12-26T02:04:09.469Z,13.33
2018-12-26T02:06:38.193Z,21.77
2018-12-26T02:09:07.714Z,20.77
2018-12-26T02:11:36.157Z,23.23
2018-12-26T02:14:04.745Z,14.13
2018-12-26T02:16:33.289Z,15.20
2018-12-26T02:19:01.741Z,14.33
2018-12-26T02:21:30.185Z,16.93
2018-12-26T02:23:58.725Z,13.17
2018-12-26T02:26:27.177Z,13.67
2018-12-26T02:28:55.632Z,15.77
2018-12-26T02:31:24.124Z,10.33
2018-12-26T02:33:52.574Z,8.50
2018-12-26T02:36:21.167Z,16.37
2018-12-26T02:38:49.714Z,14.37
2018-12-26T02:41:18.166Z,14.17
2018-12-26T02:43:46.611Z,15.83
2018-12-26T02:46:15.089Z,12.37
2018-12-26T02:48:43.536Z,10.37
2018-12-26T02:51:12.061Z,11.13
2018-12-26T02:53:40.606Z,16.47
2018-12-26T02:56:09.125Z,11.93
2018-12-26T02:58:37.681Z,10.33
2018-12-26T03:01:06.306Z,14.73
2018-12-26T03:03:34.821Z,20.70
2018-12-26T03:06:03.436Z,11.73
2018-12-26T03:08:31.982Z,15.13
2018-12-26T03:11:00.500Z,12.90
2018-12-26T03:13:29.021Z,17.30
2018-12-26T03:15:57.502Z,12.90
2018-12-26T03:18:26.037Z,13.03
2018-12-26T03:20:54.497Z,11.60
2018-12-26T03:23:23.034Z,15.50
2018-12-26T03:25:51.653Z,12.47
2018-12-26T03:28:20.099Z,19.47
2018-12-26T03:30:48.570Z,16.43
2018-12-26T03:33:17.087Z,13.03
2018-12-26T03:35:45.673Z,12.50
2018-12-26T03:38:14.300Z,20.13
2018-12-26T03:40:42.958Z,12.70
2018-12-26T03:43:11.477Z,18.23
2018-12-26T03:45:40.022Z,15.40
2018-12-26T03:48:08.833Z,11.87
2018-12-26T03:50:37.418Z,9.80
2018-12-26T03:53:05.960Z,17.60
2018-12-26T03:55:34.557Z,11.97
2018-12-26T03:58:02.996Z,12.97
2018-12-26T04:00:31.744Z,10.17
2018-12-26T04:03:00.258Z,15.80
2018-12-26T04:05:29.350Z,11.13
2018-12-26T04:07:57.818Z,15.77
2018-12-26T04:10:26.702Z,17.90
2018-12-26T04:12:55.285Z,9.93
2018-12-26T04:15:23.835Z,15.93
2018-12-26T04:17:52.421Z,9.07
2018-12-26T04:20:21.032Z,20.20
2018-12-26T04:22:50.129Z,14.77
2018-12-26T04:25:18.786Z,18.03
2018-12-26T04:27:47.382Z,10.90
2018-12-26T04:30:15.989Z,17.03
2018-12-26T04:32:44.613Z,14.23
2018-12-26T04:35:13.067Z,12.97
2018-12-26T04:37:41.560Z,18.13
2018-12-26T04:40:10.016Z,10.27
2018-12-26T04:42:38.463Z,7.93
2018-12-26T04:45:07.147Z,12.97
2018-12-26T04:47:35.589Z,9.07
2018-12-26T04:50:04.883Z,10.60
2018-12-26T04:52:33.362Z,12.10
2018-12-26T04:55:01.821Z,13.87
2018-12-26T04:57:30.729Z,8.90
2018-12-26T04:59:59.218Z,11.80
2018-12-26T05:02:27.988Z,10.07
2018-12-26T05:04:56.513Z,15.00
2018-12-26T05:07:25.242Z,12.57
2018-12-26T05:09:53.689Z,9.37
2018-12-26T05:12:22.283Z,6.53
2018-12-26T05:14:51.293Z,11.57
2018-12-26T05:17:19.812Z,12.40
2018-12-26T05:19:48.399Z,12.10
2018-12-26T05:22:16.941Z,11.80
2018-12-26T05:24:46.626Z,16.00
2018-12-26T05:27:15.146Z,12.27
2018-12-26T05:29:43.613Z,10.50
2018-12-26T05:32:12.053Z,10.90
2018-12-26T05:34:40.573Z,11.33
2018-12-26T05:37:09.041Z,10.27
2018-12-26T05:39:37.625Z,9.83
2018-12-26T05:42:06.141Z,7.37
2018-12-26T05:44:34.624Z,13.10
2018-12-26T05:47:03.064Z,11.50
2018-12-26T05:49:31.513Z,11.30
2018-12-26T05:51:59.993Z,17.10
2018-12-26T05:54:28.445Z,12.57
2018-12-26T05:56:56.889Z,8.23
2018-12-26T05:59:25.368Z,10.87
2018-12-26T06:01:53.817Z,11.23
2018-12-26T06:04:22.270Z,9.60
2018-12-26T06:06:50.729Z,7.87
2018-12-26T06:09:19.174Z,9.87
2018-12-26T06:11:47.631Z,8.60
2018-12-26T06:14:16.174Z,7.50
2018-12-26T06:16:44.618Z,8.53
2018-12-26T06:19:13.066Z,13.07
2018-12-26T06:21:41.597Z,13.60
2018-12-26T06:24:10.050Z,11.87
2018-12-26T06:26:38.509Z,10.27
2018-12-26T06:29:07.266Z,9.27
2018-12-26T06:31:35.713Z,11.40
2018-12-26T06:34:04.163Z,14.73
2018-12-26T06:36:32.645Z,7.13
2018-12-26T06:39:01.089Z,13.07
2018-12-26T06:41:29.547Z,12.83
2018-12-26T06:43:58.020Z,12.03
2018-12-26T06:46:26.467Z,14.37
2018-12-26T06:48:54.909Z,7.90
2018-12-26T06:51:23.382Z,10.47
2018-12-26T06:53:51.825Z,11.60
2018-12-26T06:56:20.277Z,10.60
2018-12-26T06:58:48.749Z,7.63
2018-12-26T07:01:17.191Z,9.13
2018-12-26T07:03:45.638Z,7.53
2018-12-26T07:06:33.529Z,12.17
2018-12-26T07:09:01.972Z,13.57
2018-12-26T07:11:30.421Z,10.53
2018-12-26T07:13:58.897Z,11.63
2018-12-26T07:16:27.344Z,6.53
2018-12-26T07:18:55.794Z,7.93
2018-12-26T07:21:24.262Z,9.87
2018-12-26T07:23:52.710Z,8.70
2018-12-26T07:26:21.592Z,7.20
2018-12-26T07:28:50.073Z,13.53
2018-12-26T07:31:18.522Z,10.23
2018-12-26T07:33:47.045Z,13.13
2018-12-26T07:36:15.543Z,13.50
2018-12-26T07:38:44.057Z,10.77
2018-12-26T07:41:12.587Z,10.50
2018-12-26T07:43:41.077Z,10.50
2018-12-26T07:46:09.594Z,11.50
2018-12-26T07:48:38.041Z,9.57
2018-12-26T07:51:06.524Z,11.60
2018-12-26T07:53:34.969Z,10.30
2018-12-26T07:56:03.418Z,11.43
2018-12-26T07:58:31.893Z,12.40
2018-12-26T08:01:00.344Z,10.63
2018-12-26T08:03:28.977Z,9.60
2018-12-26T08:05:57.457Z,11.47
2018-12-26T08:08:25.909Z,12.07
2018-12-26T08:10:54.381Z,10.93
2018-12-26T08:13:22.933Z,12.50
2018-12-26T08:15:51.381Z,13.23
2018-12-26T08:18:19.829Z,9.70
2018-12-26T08:20:48.303Z,13.13
2018-12-26T08:23:16.755Z,12.50
2018-12-26T08:25:45.193Z,7.60
2018-12-26T08:28:13.669Z,13.00
2018-12-26T08:30:42.190Z,13.53
2018-12-26T08:33:10.638Z,8.53
2018-12-26T08:35:39.185Z,15.70
2018-12-26T08:38:07.633Z,12.07
2018-12-26T08:40:36.074Z,13.83
2018-12-26T08:43:04.552Z,10.00
2018-12-26T08:45:33.002Z,15.03
2018-12-26T08:48:01.518Z,9.87
2018-12-26T08:50:29.997Z,10.20
2018-12-26T08:52:58.442Z,9.03
2018-12-26T08:55:26.885Z,10.13
2018-12-26T08:57:55.489Z,11.03
2018-12-26T09:00:23.937Z,11.53
2018-12-26T09:02:52.385Z,10.80
2018-12-26T09:05:21.237Z,12.53
2018-12-26T09:07:49.766Z,9.07
2018-12-26T09:10:18.209Z,11.47
2018-12-26T09:12:46.701Z,10.90
2018-12-26T09:15:15.150Z,12.53
2018-12-26T09:17:43.729Z,9.23
2018-12-26T09:20:12.232Z,11.43
2018-12-26T09:22:40.677Z,10.00
2018-12-26T09:25:09.146Z,10.33
2018-12-26T09:27:37.990Z,15.97
2018-12-26T09:30:08.378Z,11.30
2018-12-26T09:32:36.889Z,9.47
2018-12-26T09:35:08.207Z,10.17
2018-12-26T09:37:36.654Z,9.83
2018-12-26T09:40:08.045Z,11.70
2018-12-26T09:42:36.546Z,14.13
2018-12-26T09:45:07.638Z,13.60
2018-12-26T09:47:36.157Z,13.53
2018-12-26T09:50:05.571Z,9.07
2018-12-26T09:52:34.068Z,16.00
2018-12-26T09:55:02.570Z,10.40
2018-12-26T09:57:31.060Z,14.80
2018-12-26T09:59:59.507Z,10.70
2018-12-26T10:02:27.961Z,12.93
2018-12-26T10:04:56.589Z,12.00
2018-12-26T10:07:25.037Z,12.03
2018-12-26T10:09:53.566Z,12.87
2018-12-26T10:12:22.518Z,12.30
2018-12-26T10:14:50.966Z,13.67
2018-12-26T10:17:19.465Z,11.80
2018-12-26T10:19:50.184Z,15.63
2018-12-26T10:22:18.301Z,11.90
2018-12-26T10:24:46.738Z,13.20
2018-12-26T10:27:15.210Z,16.83
2018-12-26T10:29:43.666Z,15.43
2018-12-26T10:32:12.113Z,13.07
2018-12-26T10:34:40.581Z,11.50
2018-12-26T10:37:09.029Z,15.37
2018-12-26T10:39:37.487Z,19.03
2018-12-26T10:42:06.186Z,16.20
2018-12-26T10:44:34.635Z,15.17
2018-12-26T10:47:03.165Z,14.07
2018-12-26T10:49:31.714Z,13.63
2018-12-26T10:52:00.232Z,17.47
2018-12-26T10:54:28.745Z,14.20
2018-12-26T10:56:57.310Z,16.23
2018-12-26T10:59:26.097Z,16.77
2018-12-26T11:01:54.553Z,19.67
2018-12-26T11:04:23.057Z,19.10
2018-12-26T11:06:51.658Z,17.53
2018-12-26T11:09:20.138Z,21.57
2018-12-26T11:11:48.609Z,18.50
2018-12-26T11:14:17.063Z,19.87
2018-12-26T11:16:45.652Z,15.97
2018-12-26T11:19:14.194Z,18.80
2018-12-26T11:21:43.562Z,15.77
2018-12-26T11:24:12.009Z,17.93
2018-12-26T11:26:40.492Z,16.93
2018-12-26T11:29:08.956Z,14.87
2018-12-26T11:31:37.398Z,12.60
2018-12-26T11:34:05.953Z,15.07
2018-12-26T11:36:34.405Z,13.20
2018-12-26T11:39:04.700Z,13.43
2018-12-26T11:41:33.303Z,16.23
2018-12-26T11:44:01.821Z,16.07
2018-12-26T11:46:30.273Z,16.43
2018-12-26T11:48:58.762Z,14.80
2018-12-26T11:51:27.233Z,15.27
2018-12-26T11:53:55.689Z,15.97
2018-12-26T11:56:24.167Z,12.77
2018-12-26T11:58:52.755Z,15.40
2018-12-26T12:01:21.339Z,14.40
2018-12-26T12:03:49.881Z,17.60
2018-12-26T12:06:18.400Z,20.13
2018-12-26T12:08:46.922Z,15.27
2018-12-26T12:11:15.428Z,15.77
2018-12-26T12:13:44.023Z,14.37
2018-12-26T12:16:12.543Z,19.87
2018-12-26T12:18:41.162Z,16.73
2018-12-26T12:21:09.694Z,18.20
2018-12-26T12:23:38.142Z,21.37
2018-12-26T12:26:06.780Z,24.40
2018-12-26T12:28:35.403Z,26.17
2018-12-26T12:31:04.050Z,21.30
2018-12-26T12:33:32.545Z,20.97
2018-12-26T12:36:01.332Z,19.33
2018-12-26T12:38:29.935Z,18.57
2018-12-26T12:40:58.621Z,18.87
2018-12-26T12:43:27.222Z,19.00
2018-12-26T12:45:55.751Z,21.90
2018-12-26T12:48:24.315Z,21.27
2018-12-26T12:50:52.785Z,28.83
2018-12-26T12:53:21.238Z,36.23
2018-12-26T12:55:49.860Z,21.23
2018-12-26T12:58:18.441Z,20.17
2018-12-26T13:00:47.202Z,18.47
2018-12-26T13:03:15.754Z,19.97
2018-12-26T13:05:44.523Z,19.33
2018-12-26T13:08:13.322Z,16.53
2018-12-26T13:10:41.945Z,18.23
2018-12-26T13:13:10.543Z,20.00
2018-12-26T13:15:39.125Z,17.13
2018-12-26T13:18:07.614Z,19.60
2018-12-26T13:20:36.158Z,21.70
2018-12-26T13:23:04.678Z,19.77
2018-12-26T13:25:33.497Z,17.47
2018-12-26T13:28:02.037Z,18.17
2018-12-26T13:30:30.482Z,19.60
2018-12-26T13:32:58.957Z,16.93
2018-12-26T13:35:27.420Z,21.60
2018-12-26T13:37:55.942Z,16.13
2018-12-26T13:40:24.507Z,24.20
2018-12-26T13:42:52.957Z,16.40
2018-12-26T13:45:21.483Z,24.23
2018-12-26T13:47:49.986Z,20.00
2018-12-26T13:50:18.440Z,23.13
2018-12-26T13:52:46.980Z,20.83
2018-12-26T13:55:15.479Z,23.93
2018-12-26T13:57:44.010Z,25.40
2018-12-26T14:00:12.549Z,20.77
2018-12-26T14:02:41.052Z,21.67
2018-12-26T14:05:09.511Z,21.03
2018-12-26T14:07:37.966Z,23.43
2018-12-26T14:10:09.290Z,20.20
2018-12-26T14:12:37.814Z,20.73
2018-12-26T14:15:08.810Z,20.57
2018-12-26T14:17:37.297Z,22.23
2018-12-26T14:20:07.385Z,23.17
2018-12-26T14:22:35.912Z,22.30
2018-12-26T14:25:05.700Z,21.07
2018-12-26T14:27:34.251Z,30.30
2018-12-26T14:30:10.912Z,50.73
2018-12-26T14:32:33.058Z,56.40
2018-12-26T14:35:01.520Z,49.53
2018-12-26T14:37:30.124Z,28.30
2018-12-26T14:39:58.613Z,29.80
2018-12-26T14:42:27.133Z,49.60
2018-12-26T14:44:55.599Z,31.83
2018-12-26T14:47:24.162Z,31.00
2018-12-26T14:49:52.616Z,31.83
2018-12-26T14:52:21.153Z,29.23
2018-12-26T14:54:49.785Z,34.03
2018-12-26T14:57:18.339Z,25.23
2018-12-26T14:59:46.938Z,25.77
2018-12-26T15:02:15.548Z,23.83
2018-12-26T15:04:44.143Z,22.20
2018-12-26T15:07:12.616Z,24.63
2018-12-26T15:09:42.702Z,22.93
2018-12-26T15:12:11.230Z,19.90
2018-12-26T15:14:39.681Z,17.80
2018-12-26T15:17:08.179Z,19.00
2018-12-26T15:19:36.907Z,15.70
2018-12-26T15:22:05.434Z,20.83
2018-12-26T15:24:33.992Z,21.33
2018-12-26T15:27:02.530Z,18.90
2018-12-26T15:29:31.070Z,20.20
2018-12-26T15:31:59.633Z,22.03
2018-12-26T15:34:28.223Z,16.57
2018-12-26T15:36:56.817Z,15.60
2018-12-26T15:39:25.446Z,17.63
2018-12-26T15:41:53.900Z,22.03
2018-12-26T15:44:22.354Z,20.73
2018-12-26T15:46:50.837Z,21.77
2018-12-26T15:49:19.545Z,24.00
2018-12-26T15:51:48.138Z,26.33
2018-12-26T15:54:16.757Z,16.57
2018-12-26T15:56:45.353Z,16.23
2018-12-26T15:59:13.925Z,14.90
2018-12-26T16:01:42.405Z,26.40
2018-12-26T16:04:10.945Z,17.07
2018-12-26T16:06:39.457Z,13.43
2018-12-26T16:09:09.132Z,13.27
2018-12-26T16:11:37.733Z,15.73
2018-12-26T16:14:06.249Z,16.37
2018-12-26T16:16:34.749Z,15.00
2018-12-26T16:19:03.273Z,19.37
2018-12-26T16:21:31.737Z,15.23
2018-12-26T16:24:00.217Z,18.67
2018-12-26T16:26:28.670Z,16.73
2018-12-26T16:28:57.117Z,13.30
2018-12-26T16:31:25.672Z,14.00
2018-12-26T16:33:54.126Z,18.23
2018-12-26T16:36:22.658Z,13.87
2018-12-26T16:38:51.201Z,13.57
2018-12-26T16:41:19.669Z,17.63
2018-12-26T16:43:48.117Z,16.80
2018-12-26T16:46:16.747Z,14.67
2018-12-26T16:48:45.347Z,18.03
2018-12-26T16:51:13.930Z,13.73
2018-12-26T16:53:42.490Z,16.67
2018-12-26T16:56:10.944Z,16.77
2018-12-26T16:58:39.738Z,16.40
2018-12-26T17:01:08.290Z,18.40
2018-12-26T17:03:36.761Z,17.33
2018-12-26T17:06:05.279Z,12.83
2018-12-26T17:08:33.889Z,20.20
2018-12-26T17:11:02.423Z,15.60
2018-12-26T17:13:30.870Z,16.27
2018-12-26T17:15:59.496Z,14.57
2018-12-26T17:18:27.946Z,12.63
2018-12-26T17:20:56.397Z,16.17
2018-12-26T17:23:24.973Z,18.70
2018-12-26T17:25:53.503Z,9.80
2018-12-26T17:28:22.116Z,13.43
2018-12-26T17:30:50.665Z,13.33
2018-12-26T17:33:19.131Z,19.53
2018-12-26T17:35:47.744Z,21.57
2018-12-26T17:38:16.629Z,15.20
2018-12-26T17:40:45.208Z,19.37
2018-12-26T17:43:13.657Z,17.77
2018-12-26T17:45:42.186Z,16.27
2018-12-26T17:48:10.660Z,13.63
2018-12-26T17:50:47.741Z,15.10
2018-12-26T17:53:28.127Z,18.07
2018-12-26T17:56:22.076Z,20.33
2018-12-26T17:58:59.602Z,21.47
2018-12-26T18:01:37.197Z,14.20
2018-12-26T18:04:05.842Z,20.33
2018-12-26T18:06:34.542Z,16.73
2018-12-26T18:09:03.089Z,19.00
2018-12-26T18:11:31.613Z,23.53
2018-12-26T18:14:00.138Z,16.27
2018-12-26T18:16:28.630Z,20.67
2018-12-26T18:18:57.218Z,26.33
2018-12-26T18:21:25.752Z,17.47
2018-12-26T18:23:54.371Z,24.07
2018-12-26T18:26:22.898Z,23.67
2018-12-26T18:28:51.350Z,12.80
2018-12-26T18:31:21.903Z,16.20
2018-12-26T18:33:50.125Z,13.33
2018-12-26T18:36:18.709Z,19.90
2018-12-26T18:38:47.186Z,17.57
2018-12-26T18:41:15.636Z,15.83
2018-12-26T18:43:44.226Z,21.77
2018-12-26T18:46:12.769Z,14.97
2018-12-26T18:48:41.353Z,20.83
2018-12-26T18:51:09.799Z,22.40
2018-12-26T18:53:38.297Z,22.33
2018-12-26T18:56:06.873Z,19.87
2018-12-26T18:58:35.318Z,17.90
2018-12-26T19:01:03.933Z,17.83
2018-12-26T19:03:32.381Z,21.03
2018-12-26T19:06:00.909Z,27.83
2018-12-26T19:08:29.607Z,27.27
2018-12-26T19:10:58.121Z,33.87
2018-12-26T19:13:26.582Z,32.73
2018-12-26T19:15:55.194Z,37.90
2018-12-26T19:18:23.893Z,41.67
2018-12-26T19:20:52.478Z,42.53
2018-12-26T19:23:20.957Z,51.50
2018-12-26T19:25:49.439Z,41.73
2018-12-26T19:28:17.957Z,128.13
2018-12-26T19:30:46.429Z,34.40
2018-12-26T19:33:14.878Z,42.60
2018-12-26T19:35:43.397Z,42.43
2018-12-26T19:38:11.878Z,47.37
2018-12-26T19:40:40.332Z,79.03
2018-12-26T19:43:08.861Z,28.73
2018-12-26T19:45:37.347Z,23.23
2018-12-26T19:48:05.869Z,21.53
2018-12-26T19:50:34.321Z,24.80
2018-12-26T19:53:02.871Z,21.47
2018-12-26T19:55:31.353Z,17.87
2018-12-26T19:57:59.853Z,20.97
2018-12-26T20:00:28.401Z,20.57
2018-12-26T20:02:56.929Z,22.50
2018-12-26T20:05:25.375Z,18.23
2018-12-26T20:07:54.113Z,18.97
2018-12-26T20:10:22.619Z,19.80
2018-12-26T20:12:51.185Z,24.37
2018-12-26T20:15:19.850Z,25.23
2018-12-26T20:17:48.367Z,22.87
2018-12-26T20:20:16.899Z,21.77
2018-12-26T20:22:45.444Z,24.47
2018-12-26T20:25:13.897Z,25.27
2018-12-26T20:27:42.350Z,26.87
2018-12-26T20:30:11.057Z,21.37
2018-12-26T20:32:39.519Z,20.80
2018-12-26T20:35:08.118Z,115.07
2018-12-26T20:37:36.679Z,53.93
2018-12-26T20:40:06.461Z,36.80
2018-12-26T20:42:34.950Z,26.13
2018-12-26T20:45:03.510Z,21.87
2018-12-26T20:47:32.007Z,32.27
2018-12-26T20:50:00.454Z,32.23
2018-12-26T20:52:28.937Z,25.73
2018-12-26T20:54:57.390Z,24.77
2018-12-26T20:57:25.841Z,29.13
2018-12-26T20:59:54.333Z,25.37
2018-12-26T21:02:22.853Z,26.30
2018-12-26T21:04:51.308Z,25.80
2018-12-26T21:07:19.789Z,23.07
2018-12-26T21:09:48.379Z,17.87
2018-12-26T21:12:16.825Z,21.80
2018-12-26T21:14:45.308Z,30.33
2018-12-26T21:17:13.797Z,22.40
2018-12-26T21:19:42.326Z,28.83
2018-12-26T21:22:10.866Z,31.37
2018-12-26T21:24:39.387Z,28.53
2018-12-26T21:27:07.913Z,26.67
2018-12-26T21:29:36.393Z,24.80
2018-12-26T21:32:13.903Z,25.50
2018-12-26T21:34:35.782Z,27.17
2018-12-26T21:37:04.269Z,25.23
2018-12-26T21:39:32.857Z,26.90
2018-12-26T21:42:01.315Z,25.80
2018-12-26T21:44:29.803Z,29.70
2018-12-26T21:46:58.318Z,26.83
2018-12-26T21:49:26.881Z,25.77
2018-12-26T21:51:55.416Z,21.63
2018-12-26T21:54:23.869Z,33.00
2018-12-26T21:56:52.457Z,40.60
2018-12-26T21:59:20.952Z,46.13
2018-12-26T22:01:49.473Z,30.23
2018-12-26T22:04:17.985Z,30.23
2018-12-26T22:06:46.469Z,32.03
2018-12-26T22:09:14.921Z,36.63
2018-12-26T22:11:43.465Z,42.97
2018-12-26T22:14:11.950Z,46.03
2018-12-26T22:16:40.401Z,39.37
2018-12-26T22:19:08.853Z,43.27
2018-12-26T22:21:37.421Z,48.13
2018-12-26T22:24:05.932Z,47.00
2018-12-26T22:26:34.388Z,34.70
2018-12-26T22:29:02.860Z,35.53
2018-12-26T22:31:31.314Z,47.87
2018-12-26T22:33:59.901Z,26.20
2018-12-26T22:36:28.391Z,22.53
2018-12-26T22:38:56.925Z,22.87
2018-12-26T22:41:25.377Z,20.10
2018-12-26T22:43:53.861Z,21.43
2018-12-26T22:46:22.381Z,26.30
2018-12-26T22:48:50.906Z,27.40
2018-12-26T22:51:19.368Z,31.03
2018-12-26T22:53:47.884Z,31.20
2018-12-26T22:56:16.338Z,25.27
2018-12-26T22:58:44.819Z,25.80
2018-12-26T23:01:13.658Z,28.63
2018-12-26T23:03:42.114Z,24.97
2018-12-26T23:06:10.601Z,25.30
2018-12-26T23:08:39.101Z,23.93
2018-12-26T23:11:07.694Z,23.83
2018-12-26T23:13:36.244Z,27.67
2018-12-26T23:16:04.761Z,22.97
2018-12-26T23:18:33.295Z,27.50
2018-12-26T23:21:01.853Z,25.30
2018-12-26T23:23:30.301Z,33.47
2018-12-26T23:25:58.753Z,24.33
2018-12-26T23:28:27.304Z,27.63
2018-12-26T23:30:55.745Z,33.03
2018-12-26T23:33:24.197Z,30.90
2018-12-26T23:35:52.824Z,23.47
2018-12-26T23:38:21.341Z,29.00
2018-12-26T23:40:49.790Z,27.03
2018-12-26T23:43:18.356Z,25.10
2018-12-26T23:45:46.813Z,23.67
2018-12-26T23:48:15.266Z,31.00
2018-12-26T23:50:43.808Z,29.73
2018-12-26T23:53:12.329Z,27.93
2018-12-26T23:55:40.777Z,27.73
2018-12-26T23:58:09.306Z,30.37
